createdAt,value
2019-05-07T11:41:22.902Z,27.45
2019-05-07T11:42:22.119Z,27.42
2019-05-07T11:43:22.281Z,27.44
2019-05-07T11:44:23.014Z,27.63
2019-05-07T11:45:22.744Z,27.41
2019-05-07T11:46:22.260Z,27.42
2019-05-07T11:47:22.518Z,27.17
2019-05-07T11:48:22.159Z,27.37
2019-05-07T11:49:22.715Z,27.57
2019-05-07T11:50:22.592Z,26.88
2019-05-07T11:51:23.128Z,26.26
2019-05-07T11:52:22.838Z,26.33
2019-05-07T11:53:22.104Z,26.64
2019-05-07T11:54:21.904Z,26.84
2019-05-07T11:55:22.412Z,26.55
2019-05-07T11:56:22.028Z,26.26
2019-05-07T11:57:22.192Z,26.04
2019-05-07T11:58:22.088Z,25.68
2019-05-07T11:59:22.077Z,25.40
2019-05-07T12:00:21.959Z,24.96
2019-05-07T12:01:22.438Z,24.70
2019-05-07T12:02:22.683Z,24.48
2019-05-07T12:03:22.155Z,24.37
2019-05-07T12:04:21.797Z,24.15
2019-05-07T12:05:22.718Z,23.85
2019-05-07T12:06:21.782Z,23.63
2019-05-07T12:07:22.322Z,23.63
2019-05-07T12:08:22.428Z,23.44
2019-05-07T12:09:22.760Z,24.19
2019-05-07T12:10:22.250Z,24.58
2019-05-07T12:11:21.915Z,24.96
2019-05-07T12:12:22.261Z,25.32
2019-05-07T12:13:21.933Z,25.49
2019-05-07T12:14:30.860Z,25.98
2019-05-07T12:15:46.150Z,25.53
2019-05-07T12:16:46.142Z,25.05
2019-05-07T12:17:46.132Z,24.80
2019-05-07T12:18:46.120Z,24.63
2019-05-07T12:19:46.108Z,24.37
2019-05-07T12:20:46.103Z,24.06
2019-05-07T12:21:46.086Z,23.69
2019-05-07T12:22:46.074Z,23.47
2019-05-07T12:23:46.068Z,23.32
2019-05-07T12:24:46.051Z,23.15
2019-05-07T12:25:46.044Z,23.32
2019-05-07T12:26:46.039Z,23.45
2019-05-07T12:27:46.019Z,23.91
2019-05-07T12:28:46.009Z,24.06
2019-05-07T12:29:45.997Z,24.16
2019-05-07T12:30:45.989Z,24.37
2019-05-07T12:31:45.974Z,24.59
2019-05-07T12:32:45.965Z,24.74
2019-05-07T12:33:45.954Z,24.93
2019-05-07T12:34:45.947Z,24.95
2019-05-07T12:35:45.931Z,24.88
2019-05-07T12:36:45.920Z,25.05
2019-05-07T12:37:49.313Z,25.02
2019-05-07T12:38:45.899Z,24.92
2019-05-07T12:39:45.889Z,24.62
2019-05-07T12:40:45.876Z,23.88
2019-05-07T12:41:45.867Z,23.62
2019-05-07T12:42:45.858Z,23.50
2019-05-07T12:43:45.842Z,23.41
2019-05-07T12:44:45.832Z,23.32
2019-05-07T12:45:45.825Z,23.21
2019-05-07T12:46:45.811Z,23.03
2019-05-07T12:47:45.801Z,22.68
2019-05-07T12:48:45.789Z,22.64
2019-05-07T12:49:45.779Z,22.71
2019-05-07T12:50:45.773Z,22.64
2019-05-07T12:51:45.761Z,22.68
2019-05-07T12:52:45.747Z,22.61
2019-05-07T12:53:45.737Z,22.51
2019-05-07T12:54:45.725Z,22.48
2019-05-07T12:55:45.718Z,22.57
2019-05-07T12:56:45.710Z,22.57
2019-05-07T12:57:45.691Z,22.64
2019-05-07T12:58:45.684Z,22.67
2019-05-07T12:59:45.673Z,22.64
2019-05-07T13:00:45.666Z,22.73
2019-05-07T13:01:45.651Z,22.78
2019-05-07T13:02:45.637Z,22.61
2019-05-07T13:03:45.626Z,22.32
2019-05-07T13:04:45.614Z,22.18
2019-05-07T13:05:45.605Z,21.92
2019-05-07T13:06:45.595Z,21.73
2019-05-07T13:07:45.584Z,21.67
2019-05-07T13:08:45.573Z,21.67
2019-05-07T13:09:45.561Z,21.62
2019-05-07T13:10:45.549Z,21.53
2019-05-07T13:11:45.538Z,21.45
2019-05-07T13:12:45.533Z,21.53
2019-05-07T13:13:45.521Z,21.50
2019-05-07T13:14:45.502Z,21.62
2019-05-07T13:15:45.493Z,21.62
2019-05-07T13:16:45.481Z,21.45
2019-05-07T13:17:45.471Z,21.41
2019-05-07T13:18:45.459Z,21.29
2019-05-07T13:19:45.448Z,21.15
2019-05-07T13:20:45.436Z,21.10
2019-05-07T13:21:49.283Z,21.19
2019-05-07T13:22:45.413Z,21.13
2019-05-07T13:23:45.411Z,21.03
2019-05-07T13:24:45.394Z,20.88
2019-05-07T13:25:45.382Z,20.81
2019-05-07T13:26:45.371Z,20.94
2019-05-07T13:27:45.363Z,20.94
2019-05-07T13:28:45.349Z,20.92
2019-05-07T13:29:45.341Z,20.89
2019-05-07T13:30:45.328Z,21.06
2019-05-07T13:31:45.314Z,21.06
2019-05-07T13:32:48.112Z,21.10
2019-05-07T13:33:45.307Z,20.99
2019-05-07T13:34:45.284Z,21.09
2019-05-07T13:35:45.276Z,21.15
2019-05-07T13:36:45.259Z,21.09
2019-05-07T13:37:46.455Z,20.97
2019-05-07T13:38:45.242Z,20.96
2019-05-07T13:39:45.235Z,20.39
2019-05-07T13:40:45.219Z,19.93
2019-05-07T13:41:45.219Z,19.48
2019-05-07T13:42:45.238Z,19.55
2019-05-07T13:43:45.228Z,19.59
2019-05-07T13:44:45.177Z,19.78
2019-05-07T13:45:45.178Z,19.90
2019-05-07T13:46:45.176Z,19.92
2019-05-07T13:47:45.179Z,20.08
2019-05-07T13:48:47.042Z,20.26
2019-05-07T13:49:45.115Z,20.49
2019-05-07T13:50:45.112Z,20.39
2019-05-07T13:51:45.093Z,20.22
2019-05-07T13:52:45.082Z,20.26
2019-05-07T13:53:45.073Z,19.93
2019-05-07T13:54:45.060Z,19.37
2019-05-07T13:55:45.058Z,19.34
2019-05-07T13:56:45.041Z,19.49
2019-05-07T13:57:45.032Z,19.58
2019-05-07T13:58:45.016Z,19.59
2019-05-07T13:59:45.008Z,19.67
2019-05-07T14:00:44.997Z,19.66
2019-05-07T14:01:44.992Z,19.67
2019-05-07T14:02:44.988Z,19.70
2019-05-07T14:03:44.966Z,19.73
2019-05-07T14:04:44.955Z,19.77
2019-05-07T14:05:44.940Z,19.75
2019-05-07T14:06:44.932Z,19.77
2019-05-07T14:07:44.928Z,19.73
2019-05-07T14:08:44.916Z,19.49
2019-05-07T14:09:44.899Z,19.55
2019-05-07T14:10:44.886Z,19.53
2019-05-07T14:11:44.877Z,19.61
2019-05-07T14:12:44.871Z,19.59
2019-05-07T14:13:44.858Z,19.61
2019-05-07T14:14:44.846Z,19.87
2019-05-07T14:15:44.834Z,19.94
2019-05-07T14:16:45.198Z,19.90
2019-05-07T14:17:44.826Z,19.90
2019-05-07T14:18:44.800Z,19.96
2019-05-07T14:19:44.795Z,20.07
2019-05-07T14:20:44.780Z,19.93
2019-05-07T14:21:44.772Z,19.93
2019-05-07T14:22:44.760Z,19.89
2019-05-07T14:23:44.747Z,19.93
2019-05-07T14:24:44.734Z,19.87
2019-05-07T14:25:44.724Z,19.61
2019-05-07T14:26:44.711Z,19.49
2019-05-07T14:27:44.703Z,19.53
2019-05-07T14:28:44.689Z,19.63
2019-05-07T14:29:44.691Z,19.56
2019-05-07T14:30:44.670Z,19.59
2019-05-07T14:31:44.661Z,19.79
2019-05-07T14:32:44.646Z,19.82
2019-05-07T14:33:44.634Z,19.86
2019-05-07T14:34:44.627Z,19.90
2019-05-07T14:35:44.612Z,19.96
2019-05-07T14:36:44.603Z,19.90
2019-05-07T14:37:44.595Z,19.86
2019-05-07T14:38:44.578Z,19.75
2019-05-07T14:39:44.572Z,19.78
2019-05-07T14:40:44.557Z,19.79
2019-05-07T14:41:44.547Z,19.75
2019-05-07T14:42:44.541Z,19.90
2019-05-07T14:43:44.526Z,19.93
2019-05-07T14:44:44.517Z,19.89
2019-05-07T14:46:50.840Z,19.14
2019-05-07T14:48:08.958Z,19.03
2019-05-07T14:49:08.949Z,18.89
2019-05-07T14:50:08.991Z,18.98
2019-05-07T14:51:08.930Z,18.63
2019-05-07T14:52:08.915Z,18.58
2019-05-07T14:53:08.912Z,18.58
2019-05-07T14:54:08.915Z,18.70
2019-05-07T14:55:08.880Z,18.70
2019-05-07T14:56:08.869Z,18.76
2019-05-07T14:57:08.867Z,18.75
2019-05-07T14:58:08.849Z,18.63
2019-05-07T14:59:08.845Z,18.71
2019-05-07T15:00:08.825Z,18.60
2019-05-07T15:01:08.815Z,18.68
2019-05-07T15:02:08.805Z,18.68
2019-05-07T15:03:08.794Z,18.82
2019-05-07T15:05:08.774Z,18.93
2019-05-07T15:06:08.760Z,19.11
2019-05-07T15:07:08.748Z,19.19
2019-05-07T15:08:11.735Z,19.22
2019-05-07T15:09:08.726Z,19.19
2019-05-07T15:10:08.715Z,19.16
2019-05-07T15:11:08.709Z,19.26
2019-05-07T15:12:11.419Z,19.31
2019-05-07T15:13:08.684Z,19.36
2019-05-07T15:14:08.671Z,19.41
2019-05-07T15:15:08.667Z,19.40
2019-05-07T15:16:08.650Z,19.30
2019-05-07T15:17:08.639Z,19.21
2019-05-07T15:18:08.628Z,19.30
2019-05-07T15:19:08.619Z,19.26
2019-05-07T15:20:08.606Z,19.36
2019-05-07T15:21:08.602Z,19.49
2019-05-07T15:22:08.587Z,19.53
2019-05-07T15:23:08.574Z,19.43
2019-05-07T15:24:08.561Z,19.37
2019-05-07T15:25:08.558Z,19.26
2019-05-07T15:26:08.543Z,19.36
2019-05-07T15:27:08.534Z,19.23
2019-05-07T15:28:08.518Z,19.36
2019-05-07T15:29:08.507Z,19.12
2019-05-07T15:30:08.495Z,19.04
2019-05-07T15:31:08.492Z,19.14
2019-05-07T15:32:08.474Z,19.19
2019-05-07T15:33:08.468Z,19.01
2019-05-07T15:34:08.451Z,19.12
2019-05-07T15:35:08.440Z,19.11
2019-05-07T15:36:08.430Z,19.11
2019-05-07T15:37:08.418Z,19.03
2019-05-07T15:38:08.410Z,19.01
2019-05-07T15:39:08.395Z,19.08
2019-05-07T15:40:08.384Z,19.12
2019-05-07T15:41:08.373Z,19.19
2019-05-07T15:42:08.360Z,19.21
2019-05-07T15:43:08.358Z,19.08
2019-05-07T15:44:08.347Z,18.42
2019-05-07T15:45:08.384Z,17.80
2019-05-07T15:46:08.344Z,17.41
2019-05-07T15:48:08.292Z,17.54
2019-05-07T15:49:08.281Z,17.74
2019-05-07T15:50:08.281Z,17.77
2019-05-07T15:51:08.258Z,17.45
2019-05-07T15:52:08.248Z,17.38
2019-05-07T15:53:08.244Z,17.31
2019-05-07T15:54:08.225Z,17.14
2019-05-07T15:55:08.215Z,16.73
2019-05-07T15:56:08.205Z,16.16
2019-05-07T15:57:08.195Z,15.83
2019-05-07T15:58:08.182Z,15.83
2019-05-07T15:59:08.169Z,15.81
2019-05-07T16:01:08.162Z,16.13
2019-05-07T16:03:08.148Z,16.20
2019-05-07T16:04:19.090Z,16.32
2019-05-07T16:05:32.585Z,16.57
2019-05-07T16:06:32.567Z,16.81
2019-05-07T16:07:32.836Z,16.98
2019-05-07T16:08:32.547Z,17.10
2019-05-07T16:09:32.718Z,17.22
2019-05-07T16:10:32.528Z,17.41
2019-05-07T16:11:32.643Z,17.34
2019-05-07T16:12:32.502Z,17.30
2019-05-07T16:13:32.785Z,17.25
2019-05-07T16:14:32.487Z,17.39
2019-05-07T16:15:32.469Z,17.45
2019-05-07T16:16:33.338Z,17.49
2019-05-07T16:17:32.841Z,17.53
2019-05-07T16:18:32.757Z,17.53
2019-05-07T16:19:32.420Z,17.50
2019-05-07T16:20:32.708Z,17.64
2019-05-07T16:21:32.673Z,17.68
2019-05-07T16:22:32.799Z,17.59
2019-05-07T16:23:32.697Z,17.72
2019-05-07T16:24:32.365Z,17.70
2019-05-07T16:25:32.812Z,17.59
2019-05-07T16:26:32.766Z,17.67
2019-05-07T16:27:32.330Z,17.67
2019-05-07T16:28:32.506Z,17.65
2019-05-07T16:29:35.606Z,17.61
2019-05-07T16:30:32.536Z,17.59
2019-05-07T16:31:33.220Z,17.65
2019-05-07T16:32:32.850Z,17.70
2019-05-07T16:33:34.732Z,17.65
2019-05-07T16:34:32.676Z,17.68
2019-05-07T16:35:32.301Z,17.72
2019-05-07T16:36:32.932Z,17.71
2019-05-07T16:37:32.348Z,17.82
2019-05-07T16:38:32.798Z,17.80
2019-05-07T16:39:32.684Z,17.56
2019-05-07T16:40:32.467Z,17.62
2019-05-07T16:41:32.175Z,17.61
2019-05-07T16:42:32.296Z,17.41
2019-05-07T16:43:32.160Z,17.45
2019-05-07T16:44:33.110Z,17.49
2019-05-07T16:45:32.136Z,17.46
2019-05-07T16:46:32.126Z,17.41
2019-05-07T16:47:32.116Z,17.37
2019-05-07T16:48:32.700Z,17.35
2019-05-07T16:49:32.088Z,17.43
2019-05-07T16:50:32.738Z,17.34
2019-05-07T16:51:33.052Z,17.31
2019-05-07T16:52:34.913Z,17.32
2019-05-07T16:53:35.047Z,17.27
2019-05-07T16:54:32.033Z,17.22
2019-05-07T16:55:32.768Z,17.20
2019-05-07T16:56:33.322Z,17.30
2019-05-07T16:57:33.687Z,17.32
2019-05-07T16:58:34.869Z,17.30
2019-05-07T16:59:32.525Z,17.22
2019-05-07T17:00:31.999Z,17.27
2019-05-07T17:01:32.532Z,17.24
2019-05-07T17:02:33.880Z,17.25
2019-05-07T17:03:32.006Z,17.28
2019-05-07T17:04:32.068Z,17.30
2019-05-07T17:05:32.172Z,17.17
2019-05-07T17:06:32.253Z,17.14
2019-05-07T17:07:32.197Z,17.17
2019-05-07T17:08:32.083Z,17.10
2019-05-07T17:09:32.308Z,17.07
2019-05-07T17:10:31.994Z,16.98
2019-05-07T17:11:32.197Z,16.95
2019-05-07T17:13:32.026Z,16.86
2019-05-07T17:14:31.817Z,16.95
2019-05-07T17:15:31.797Z,16.87
2019-05-07T17:16:31.922Z,16.81
2019-05-07T17:17:32.234Z,16.91
2019-05-07T17:18:32.574Z,16.79
2019-05-07T17:19:32.049Z,16.83
2019-05-07T17:20:32.785Z,16.86
2019-05-07T17:21:32.494Z,16.75
2019-05-07T17:22:32.265Z,16.73
2019-05-07T17:23:43.669Z,16.58
2019-05-07T17:24:33.064Z,16.58
2019-05-07T17:25:33.383Z,16.61
2019-05-07T17:26:31.672Z,16.68
2019-05-07T17:27:32.110Z,16.64
2019-05-07T17:28:32.051Z,16.63
2019-05-07T17:30:32.073Z,16.63
2019-05-07T17:31:31.912Z,16.73
2019-05-07T17:32:32.122Z,16.72
2019-05-07T17:33:32.096Z,16.66
2019-05-07T17:34:31.589Z,16.53
2019-05-07T17:35:34.181Z,16.50
2019-05-07T17:36:33.041Z,16.43
2019-05-07T17:37:31.554Z,16.46
2019-05-07T17:38:32.213Z,16.33
2019-05-07T17:39:32.152Z,16.33
2019-05-07T17:40:32.129Z,16.36
2019-05-07T17:41:32.211Z,16.28
2019-05-07T17:42:32.869Z,16.24
2019-05-07T17:43:32.473Z,16.21
2019-05-07T17:44:32.321Z,16.10
2019-05-07T17:45:32.832Z,16.20
2019-05-07T17:46:32.381Z,16.16
2019-05-07T17:47:32.217Z,16.14
2019-05-07T17:48:32.620Z,16.08
2019-05-07T17:49:32.809Z,16.14
2019-05-07T17:50:32.295Z,16.17
2019-05-07T17:51:32.362Z,16.13
2019-05-07T17:52:32.378Z,16.17
2019-05-07T17:53:32.060Z,16.08
2019-05-07T17:54:31.829Z,16.08
2019-05-07T17:55:33.194Z,16.03
2019-05-07T17:56:32.041Z,16.05
2019-05-07T17:57:33.354Z,16.08
2019-05-07T17:58:32.599Z,16.08
2019-05-07T17:59:32.078Z,16.08
2019-05-07T18:00:32.830Z,16.00
2019-05-07T18:01:32.709Z,16.06
2019-05-07T18:02:32.686Z,16.02
2019-05-07T18:03:32.298Z,15.96
2019-05-07T18:04:33.785Z,15.90
2019-05-07T18:05:55.711Z,15.88
2019-05-07T18:06:55.707Z,15.83
2019-05-07T18:07:55.688Z,15.87
2019-05-07T18:08:55.676Z,15.78
2019-05-07T18:09:55.662Z,15.69
2019-05-07T18:10:55.653Z,15.70
2019-05-07T18:11:55.641Z,15.63
2019-05-07T18:12:55.635Z,15.52
2019-05-07T18:13:55.620Z,15.54
2019-05-07T18:14:55.608Z,15.52
2019-05-07T18:15:55.596Z,15.39
2019-05-07T18:16:55.580Z,15.40
2019-05-07T18:17:55.571Z,15.39
2019-05-07T18:18:55.564Z,15.39
2019-05-07T18:19:55.550Z,15.37
2019-05-07T18:20:55.535Z,15.42
2019-05-07T18:21:55.526Z,15.34
2019-05-07T18:22:55.520Z,15.37
2019-05-07T18:23:55.503Z,15.37
2019-05-07T18:24:55.493Z,15.31
2019-05-07T18:25:55.482Z,15.32
2019-05-07T18:26:55.465Z,15.31
2019-05-07T18:27:55.457Z,15.18
2019-05-07T18:28:55.442Z,15.22
2019-05-07T18:29:55.433Z,15.16
2019-05-07T18:30:55.423Z,15.24
2019-05-07T18:31:55.410Z,15.16
2019-05-07T18:32:55.397Z,15.16
2019-05-07T18:33:55.397Z,15.06
2019-05-07T18:34:55.381Z,15.00
2019-05-07T18:35:55.363Z,15.04
2019-05-07T18:36:55.352Z,15.04
2019-05-07T18:37:55.346Z,15.03
2019-05-07T18:38:55.342Z,14.98
2019-05-07T18:39:55.327Z,15.00
2019-05-07T18:40:55.310Z,14.95
2019-05-07T18:41:55.299Z,14.96
2019-05-07T18:42:55.287Z,14.91
2019-05-07T18:44:08.114Z,14.86
2019-05-07T18:44:56.285Z,14.86
2019-05-07T18:45:55.249Z,14.69
2019-05-07T18:46:55.240Z,14.77
2019-05-07T18:47:55.234Z,14.76
2019-05-07T18:48:55.218Z,14.71
2019-05-07T18:51:55.192Z,14.73
2019-05-07T18:52:55.175Z,14.70
2019-05-07T18:53:55.161Z,14.74
2019-05-07T18:54:55.154Z,14.74
2019-05-07T18:55:55.148Z,14.70
2019-05-07T18:56:55.134Z,14.59
2019-05-07T18:57:55.117Z,14.61
2019-05-07T18:59:55.093Z,14.61
2019-05-07T19:00:55.079Z,14.59
2019-05-07T19:01:55.074Z,14.59
2019-05-07T19:02:55.059Z,14.56
2019-05-07T19:03:55.049Z,14.46
2019-05-07T19:06:55.017Z,14.46
2019-05-07T19:08:04.621Z,14.46
2019-05-07T19:09:19.469Z,14.38
2019-05-07T19:10:19.458Z,14.38
2019-05-07T19:11:19.444Z,14.36
2019-05-07T19:13:19.425Z,14.36
2019-05-07T19:14:19.414Z,14.37
2019-05-07T19:15:19.408Z,14.31
2019-05-07T19:17:21.746Z,14.41
2019-05-07T19:18:19.371Z,14.36
2019-05-07T19:19:19.356Z,14.37
2019-05-07T19:20:21.665Z,14.33
2019-05-07T19:21:19.336Z,14.38
2019-05-07T22:07:41.918Z,11.59
